Time;durP1;ratioP1;P1;durP2;ratioP2;P2;SDS_P1;SDS_P2;PMS_P1;PMS_P2;Temp;Humidity;BMP_temperature;BMP_pressure;BME280_temperature;BME280_humidity;BME280_pressure;Samples;Min_cycle;Max_cycle;Signal;HPM_P1;HPM_P2
2022/05/04 00:00:23;;;;;;;7.63;6.78;;;16.90;96.70;;;;;;4914164;29;20055;-87
2022/05/04 00:02:51;;;;;;;8.13;6.97;;;17.00;96.70;;;;;;4920711;29;20051;-86
2022/05/04 00:05:19;;;;;;;8.60;7.38;;;17.00;96.70;;;;;;4923944;29;20543;-87
2022/05/04 00:07:47;;;;;;;8.15;6.38;;;16.90;96.70;;;;;;4929971;29;20065;-87
2022/05/04 00:10:15;;;;;;;7.00;6.30;;;16.90;96.70;;;;;;4926576;29;20078;-87
2022/05/04 00:12:43;;;;;;;8.40;6.38;;;16.80;96.70;;;;;;4908736;29;20154;-85
2022/05/04 00:15:15;;;;;;;8.30;6.68;;;16.80;96.70;;;;;;4918131;29;20060;-87
2022/05/04 00:17:44;;;;;;;7.10;6.45;;;16.70;96.70;;;;;;4921950;29;20146;-86
2022/05/04 00:20:12;;;;;;;6.72;6.05;;;16.60;96.70;;;;;;4913479;29;20339;-87
2022/05/04 00:22:40;;;;;;;8.93;6.10;;;16.60;96.70;;;;;;4932107;29;20105;-86
2022/05/04 00:25:09;;;;;;;6.75;6.00;;;16.60;96.70;;;;;;4927218;29;20036;-88
2022/05/04 00:27:37;;;;;;;7.47;6.22;;;16.60;96.70;;;;;;4932414;29;20057;-86
2022/05/04 00:30:06;;;;;;;7.43;5.50;;;16.60;96.70;;;;;;4935632;29;20059;-87
2022/05/04 00:32:36;;;;;;;6.90;5.35;;;16.60;96.70;;;;;;4922446;29;20055;-87
2022/05/04 00:35:04;;;;;;;6.43;5.28;;;16.60;96.70;;;;;;4922913;29;20047;-87
2022/05/04 00:37:32;;;;;;;5.03;4.50;;;16.60;96.70;;;;;;4935187;29;20492;-87
2022/05/04 00:40:00;;;;;;;5.30;4.80;;;16.50;96.70;;;;;;4923400;29;20146;-87
2022/05/04 00:42:27;;;;;;;4.90;4.40;;;16.60;96.70;;;;;;4942748;28;20051;-87
2022/05/04 00:44:55;;;;;;;5.25;4.85;;;16.50;96.70;;;;;;4935990;29;20046;-87
2022/05/04 00:47:23;;;;;;;6.28;5.13;;;16.60;96.70;;;;;;4918931;29;20075;-87
2022/05/04 00:49:52;;;;;;;4.88;4.47;;;16.50;96.70;;;;;;4935618;29;20501;-87
2022/05/04 00:52:22;;;;;;;4.80;4.30;;;16.60;96.70;;;;;;4928796;29;20083;-87
2022/05/04 00:54:51;;;;;;;5.25;4.65;;;16.50;96.70;;;;;;4931252;29;20079;-86
2022/05/04 01:00:09;;;;;;;5.15;4.75;;;16.40;96.70;;;;;;4915409;29;20048;-86
2022/05/04 01:02:38;;;;;;;5.75;5.15;;;16.30;96.70;;;;;;4917844;29;20040;-88
2022/05/04 01:05:09;;;;;;;5.95;5.28;;;16.30;96.70;;;;;;4920536;29;20067;-87
2022/05/04 01:07:37;;;;;;;6.47;5.43;;;16.30;96.70;;;;;;4923870;29;20048;-87
2022/05/04 01:10:07;;;;;;;5.80;5.05;;;16.20;96.70;;;;;;4923512;29;20046;-88
2022/05/04 01:12:36;;;;;;;6.40;5.50;;;16.20;96.70;;;;;;4942855;28;20043;-87
2022/05/04 01:15:05;;;;;;;5.53;5.03;;;16.20;96.70;;;;;;4931607;29;20047;-88
2022/05/04 01:17:33;;;;;;;6.78;5.53;;;16.30;96.70;;;;;;4927204;29;20062;-88
2022/05/04 01:20:00;;;;;;;5.30;4.80;;;16.30;96.70;;;;;;4948308;29;20065;-88
2022/05/04 01:22:30;;;;;;;6.60;5.55;;;16.20;96.70;;;;;;4943090;28;20119;-87
2022/05/04 01:24:58;;;;;;;6.30;5.35;;;16.20;96.70;;;;;;4917196;29;20082;-88
2022/05/04 01:27:26;;;;;;;5.35;4.82;;;16.20;96.70;;;;;;4922649;29;20051;-87
2022/05/04 01:29:54;;;;;;;5.68;5.10;;;16.10;96.70;;;;;;4943148;28;20043;-88
2022/05/04 01:32:22;;;;;;;6.43;5.60;;;16.10;96.70;;;;;;4942532;28;20052;-87
2022/05/04 01:34:50;;;;;;;8.52;5.40;;;16.10;96.70;;;;;;4930563;29;20055;-87
2022/05/04 01:37:18;;;;;;;5.60;5.10;;;16.10;96.70;;;;;;4942259;28;20056;-88
2022/05/04 01:39:48;;;;;;;7.47;5.53;;;16.10;96.70;;;;;;4903041;29;20052;-87
2022/05/04 01:42:16;;;;;;;5.65;4.85;;;16.10;96.70;;;;;;4899213;29;20175;-87
2022/05/04 01:44:45;;;;;;;4.88;4.38;;;16.10;96.70;;;;;;4880821;29;20057;-88
2022/05/04 01:47:13;;;;;;;6.07;4.35;;;16.10;96.70;;;;;;4885152;29;20044;-88
2022/05/04 01:49:41;;;;;;;5.07;4.50;;;16.00;96.70;;;;;;4885369;29;20053;-88
2022/05/04 01:52:08;;;;;;;5.10;4.60;;;15.90;96.70;;;;;;4875876;29;20049;-87
2022/05/04 01:54:36;;;;;;;6.72;4.88;;;16.00;96.70;;;;;;4888133;29;20115;-88
2022/05/04 01:57:06;;;;;;;5.45;4.50;;;16.00;96.70;;;;;;4859083;29;20503;-87
2022/05/04 01:59:34;;;;;;;5.00;4.47;;;15.90;96.70;;;;;;4880091;29;20061;-87
2022/05/04 02:02:04;;;;;;;5.60;4.43;;;15.90;96.70;;;;;;4880244;29;20187;-87
2022/05/04 02:04:32;;;;;;;5.10;4.60;;;15.80;96.70;;;;;;4882387;29;20155;-86
2022/05/04 02:07:01;;;;;;;7.18;4.47;;;15.80;96.70;;;;;;4884648;29;20154;-88
2022/05/04 02:09:29;;;;;;;5.75;5.13;;;15.90;96.70;;;;;;4892900;29;20475;-86
2022/05/04 02:11:57;;;;;;;5.22;4.50;;;15.90;96.70;;;;;;4888735;29;20483;-87
2022/05/04 02:14:26;;;;;;;5.25;4.75;;;15.80;96.70;;;;;;4887407;29;20056;-88
2022/05/04 02:16:54;;;;;;;6.10;4.70;;;15.80;96.70;;;;;;4916359;29;20134;-88
2022/05/04 02:19:22;;;;;;;7.55;4.57;;;15.80;96.70;;;;;;4905099;29;20048;-88
2022/05/04 02:21:50;;;;;;;4.85;4.25;;;15.70;96.70;;;;;;4901901;29;20467;-88
2022/05/04 02:24:18;;;;;;;5.13;4.63;;;15.70;96.70;;;;;;4903188;29;20104;-88
2022/05/04 02:26:46;;;;;;;5.20;4.70;;;15.60;96.70;;;;;;4906562;29;20050;-87
2022/05/04 02:29:15;;;;;;;5.10;4.60;;;15.50;96.70;;;;;;4925698;29;20082;-88
2022/05/04 02:31:44;;;;;;;4.95;4.30;;;15.50;96.70;;;;;;4927076;29;20691;-88
2022/05/04 02:34:12;;;;;;;5.75;5.15;;;15.60;96.70;;;;;;4898110;29;20063;-88
2022/05/04 02:39:27;;;;;;;5.10;4.60;;;15.60;96.70;;;;;;4913827;29;20144;-88
2022/05/04 02:41:55;;;;;;;6.95;5.00;;;15.40;96.70;;;;;;4924971;29;20044;-88
2022/05/04 02:44:23;;;;;;;5.90;5.30;;;15.40;96.70;;;;;;4916226;28;20048;-86
2022/05/04 02:46:52;;;;;;;5.57;4.97;;;15.30;96.70;;;;;;4917085;29;20048;-88
2022/05/04 02:49:20;;;;;;;6.75;5.63;;;15.30;96.70;;;;;;4910529;29;20416;-88
2022/05/04 02:51:48;;;;;;;6.28;5.30;;;15.20;96.70;;;;;;4917769;29;20478;-89
2022/05/04 02:54:15;;;;;;;6.57;5.55;;;15.20;96.70;;;;;;4913561;29;20079;-89
2022/05/04 02:56:43;;;;;;;7.13;6.30;;;15.20;96.70;;;;;;4919902;29;20048;-87
2022/05/04 02:59:11;;;;;;;7.45;5.82;;;15.30;96.70;;;;;;4911161;29;20036;-89
2022/05/04 03:04:35;;;;;;;6.68;6.05;;;15.20;96.70;;;;;;4904496;29;20040;-88
2022/05/04 03:07:04;;;;;;;5.80;5.13;;;15.20;96.70;;;;;;4928319;29;20060;-88
2022/05/04 03:09:31;;;;;;;6.13;5.43;;;15.10;96.70;;;;;;4908701;29;20139;-88
2022/05/04 03:11:59;;;;;;;6.30;5.07;;;15.20;96.70;;;;;;4941418;29;20040;-88
2022/05/04 03:14:28;;;;;;;6.38;5.78;;;15.20;96.70;;;;;;4910018;29;20524;-88
2022/05/04 03:16:56;;;;;;;7.07;5.93;;;15.20;96.70;;;;;;4918539;29;20089;-89
2022/05/04 03:19:25;;;;;;;6.57;5.82;;;15.20;96.70;;;;;;4926436;29;20119;-88
2022/05/04 03:21:54;;;;;;;6.63;5.63;;;15.20;96.70;;;;;;4925803;29;20052;-88
2022/05/04 03:24:22;;;;;;;6.18;5.13;;;15.10;96.70;;;;;;4921814;29;20102;-88
2022/05/04 03:26:50;;;;;;;6.20;5.57;;;15.10;96.70;;;;;;4930495;29;20047;-88
2022/05/04 03:29:18;;;;;;;6.10;5.50;;;15.10;96.70;;;;;;4930091;29;20057;-88
2022/05/04 03:31:46;;;;;;;5.53;4.80;;;15.10;96.70;;;;;;4946459;28;20043;-89
2022/05/04 03:34:14;;;;;;;6.10;5.15;;;15.10;96.70;;;;;;4917305;29;20805;-88
2022/05/04 03:36:42;;;;;;;6.10;4.97;;;15.10;96.70;;;;;;4904333;29;20131;-89
2022/05/04 03:39:11;;;;;;;5.38;4.88;;;15.00;96.70;;;;;;4913234;29;20056;-87
2022/05/04 03:41:39;;;;;;;7.28;4.75;;;15.00;96.70;;;;;;4898559;29;20067;-89
2022/05/04 03:44:07;;;;;;;5.72;5.00;;;15.00;96.70;;;;;;4901747;29;20499;-89
2022/05/04 03:46:43;;;;;;;5.00;4.50;;;15.00;96.70;;;;;;4901877;29;20071;-89
2022/05/04 03:49:12;;;;;;;7.60;4.63;;;14.90;96.70;;;;;;4895588;29;20048;-88
2022/05/04 03:51:40;;;;;;;5.13;4.00;;;15.00;96.70;;;;;;4893719;29;20052;-89
2022/05/04 03:54:08;;;;;;;4.60;4.03;;;15.00;96.70;;;;;;4913562;29;20043;-88
2022/05/04 03:56:38;;;;;;;4.82;4.32;;;14.90;96.70;;;;;;4896990;29;20044;-88
2022/05/04 03:59:07;;;;;;;4.63;4.22;;;14.90;96.70;;;;;;4909323;29;20451;-88
2022/05/04 04:01:34;;;;;;;4.70;4.07;;;14.90;96.70;;;;;;4914213;29;20052;-88
2022/05/04 04:04:03;;;;;;;5.50;4.70;;;14.90;96.70;;;;;;4914730;29;20056;-88
2022/05/04 04:06:35;;;;;;;5.72;4.63;;;14.90;96.70;;;;;;4898772;29;20041;-88
2022/05/04 04:09:04;;;;;;;4.35;3.78;;;14.90;96.70;;;;;;4931890;29;20052;-88
2022/05/04 04:11:31;;;;;;;4.00;3.70;;;14.90;96.70;;;;;;4914309;29;20688;-88
2022/05/04 04:14:01;;;;;;;4.75;3.78;;;14.90;96.70;;;;;;4894118;29;20070;-89
2022/05/04 04:16:29;;;;;;;5.85;4.07;;;14.90;96.70;;;;;;4904412;29;20055;-88
2022/05/04 04:18:57;;;;;;;4.05;3.75;;;14.90;96.70;;;;;;4908049;29;20044;-88
2022/05/04 04:24:10;;;;;;;4.20;3.65;;;14.90;96.70;;;;;;4914818;29;20043;-88
2022/05/04 04:26:38;;;;;;;4.10;3.70;;;14.80;96.70;;;;;;4927413;29;20048;-88
2022/05/04 04:29:08;;;;;;;4.90;3.78;;;14.80;96.70;;;;;;4910249;29;20048;-89
2022/05/04 04:31:35;;;;;;;4.75;3.65;;;14.80;96.70;;;;;;4911921;29;20048;-88
2022/05/04 04:34:04;;;;;;;3.50;3.20;;;14.80;96.70;;;;;;4901656;29;20138;-88
2022/05/04 04:36:37;;;;;;;4.63;3.65;;;14.80;96.70;;;;;;4921651;29;20047;-89
2022/05/04 04:39:05;;;;;;;4.45;3.58;;;14.70;96.70;;;;;;4900911;29;20062;-87
2022/05/04 04:41:33;;;;;;;4.97;3.38;;;14.70;96.70;;;;;;4919693;29;20261;-89
2022/05/04 04:44:01;;;;;;;6.47;3.22;;;14.80;96.70;;;;;;4911055;29;20511;-88
2022/05/04 04:46:30;;;;;;;4.50;3.78;;;14.80;96.70;;;;;;4898499;29;20057;-89
2022/05/04 04:48:58;;;;;;;3.80;3.50;;;14.80;96.70;;;;;;4930586;29;20040;-89
2022/05/04 04:51:26;;;;;;;3.72;3.30;;;14.80;96.70;;;;;;4926839;29;20557;-89
2022/05/04 04:53:54;;;;;;;4.22;3.42;;;14.90;96.70;;;;;;4910564;29;20083;-90
2022/05/04 04:56:22;;;;;;;4.15;3.63;;;15.00;96.70;;;;;;4927064;29;20046;-89
2022/05/04 04:58:49;;;;;;;5.82;4.13;;;15.00;96.70;;;;;;4904430;29;20055;-88
2022/05/04 05:01:19;;;;;;;4.57;4.18;;;15.00;96.70;;;;;;4925657;29;20048;-90
2022/05/04 05:03:49;;;;;;;5.85;4.95;;;14.80;96.70;;;;;;4920216;29;20107;-89
2022/05/04 05:06:19;;;;;;;5.25;4.75;;;14.80;96.70;;;;;;4904604;29;20513;-88
2022/05/04 05:08:48;;;;;;;4.70;4.30;;;14.80;96.70;;;;;;4903532;29;20131;-88
2022/05/04 05:11:16;;;;;;;4.93;4.32;;;14.80;96.70;;;;;;4922664;29;20048;-88
2022/05/04 05:16:30;;;;;;;6.80;5.22;;;14.90;96.70;;;;;;4910238;29;20153;-88
2022/05/04 05:18:59;;;;;;;6.40;5.72;;;14.90;96.70;;;;;;4910864;29;20044;-89
2022/05/04 05:21:28;;;;;;;7.55;5.93;;;15.10;96.70;;;;;;4893591;29;20081;-89
2022/05/04 05:23:55;;;;;;;6.30;5.70;;;15.00;96.70;;;;;;4903839;29;20509;-89
2022/05/04 05:26:23;;;;;;;5.80;5.30;;;15.10;96.70;;;;;;4923256;29;20106;-89
2022/05/04 05:28:51;;;;;;;6.68;5.97;;;15.00;96.70;;;;;;4906530;29;20131;-88
2022/05/04 05:31:19;;;;;;;6.35;5.28;;;15.00;96.70;;;;;;4904297;29;20052;-89
2022/05/04 05:33:46;;;;;;;8.00;5.60;;;15.00;96.70;;;;;;4902225;29;20041;-89
2022/05/04 05:36:21;;;;;;;6.72;6.00;;;15.00;96.70;;;;;;4898423;29;20052;-89
2022/05/04 05:38:50;;;;;;;8.38;5.93;;;15.10;96.70;;;;;;4911806;29;20051;-89
2022/05/04 05:41:19;;;;;;;7.90;5.55;;;15.10;96.70;;;;;;4921629;29;20178;-89
2022/05/04 05:43:48;;;;;;;6.63;5.88;;;15.30;96.70;;;;;;4898508;29;20040;-89
2022/05/04 05:46:16;;;;;;;6.60;5.95;;;15.40;96.70;;;;;;4933697;29;20059;-89
2022/05/04 05:48:47;;;;;;;8.48;6.95;;;15.40;96.70;;;;;;4926237;29;20371;-89
2022/05/04 05:51:15;;;;;;;7.47;6.18;;;15.50;96.70;;;;;;4885009;29;20070;-89
2022/05/04 05:53:44;;;;;;;6.82;6.22;;;15.60;96.70;;;;;;4923414;29;20071;-89
2022/05/04 05:56:12;;;;;;;7.72;6.90;;;15.70;96.70;;;;;;4913110;29;20154;-87
2022/05/04 05:58:40;;;;;;;9.32;7.18;;;15.70;96.70;;;;;;4901774;29;20052;-85
2022/05/04 06:01:08;;;;;;;7.10;6.40;;;15.70;96.70;;;;;;4927673;29;20122;-85
2022/05/04 06:03:36;;;;;;;7.28;6.50;;;15.70;96.70;;;;;;4900841;29;20149;-86
2022/05/04 06:06:04;;;;;;;7.45;6.75;;;15.70;96.70;;;;;;4899845;29;20052;-85
2022/05/04 06:08:32;;;;;;;9.50;6.80;;;15.80;96.70;;;;;;4901951;29;20047;-84
2022/05/04 06:11:01;;;;;;;10.00;7.05;;;15.90;96.70;;;;;;4901720;29;20056;-84
2022/05/04 06:13:30;;;;;;;7.57;6.88;;;15.90;96.70;;;;;;4899183;29;20058;-85
2022/05/04 06:15:57;;;;;;;10.68;7.10;;;16.00;96.70;;;;;;4904869;29;20142;-84
2022/05/04 06:18:25;;;;;;;9.98;6.95;;;16.10;96.70;;;;;;4904393;29;20110;-84
2022/05/04 06:20:53;;;;;;;8.00;6.22;;;16.10;96.70;;;;;;4924882;29;20043;-85
2022/05/04 06:23:21;;;;;;;7.60;6.90;;;16.20;96.70;;;;;;4911369;29;20130;-82
2022/05/04 06:25:50;;;;;;;6.80;6.20;;;16.30;96.70;;;;;;4924087;29;20063;-85
2022/05/04 06:28:19;;;;;;;8.50;6.43;;;16.50;96.70;;;;;;4899258;29;20063;-87
2022/05/04 06:36:20;;;;;;;6.97;6.28;;;16.70;96.70;;;;;;4908163;29;20067;-85
2022/05/04 06:38:48;;;;;;;9.77;6.85;;;16.80;96.70;;;;;;4896285;29;20060;-87
2022/05/04 06:41:15;;;;;;;7.53;6.25;;;16.90;96.70;;;;;;4898594;29;20048;-86
2022/05/04 06:43:45;;;;;;;8.02;6.57;;;17.00;96.70;;;;;;4912429;29;20059;-85
2022/05/04 06:46:14;;;;;;;7.20;6.50;;;17.00;96.70;;;;;;4900651;29;20421;-85
2022/05/04 06:48:42;;;;;;;9.63;7.68;;;17.10;96.70;;;;;;4913584;29;20110;-85
2022/05/04 06:51:10;;;;;;;8.15;7.28;;;17.10;96.70;;;;;;4897835;29;20450;-86
2022/05/04 06:53:38;;;;;;;9.80;7.70;;;17.20;96.70;;;;;;4902994;29;20087;-83
2022/05/04 06:56:25;;;;;;;8.10;7.30;;;17.30;96.70;;;;;;4901287;29;20048;-84
2022/05/04 06:58:54;;;;;;;8.98;7.20;;;17.20;96.70;;;;;;4897668;29;20598;-84
2022/05/04 07:01:22;;;;;;;10.20;8.18;;;17.30;96.70;;;;;;4915532;29;20082;-84
2022/05/04 07:03:50;;;;;;;10.80;8.75;;;17.40;96.70;;;;;;4900267;29;20055;-84
2022/05/04 07:06:18;;;;;;;9.45;7.63;;;17.50;96.70;;;;;;4914921;29;20486;-86
2022/05/04 07:08:46;;;;;;;8.18;7.38;;;17.50;96.70;;;;;;4902931;29;20052;-85
2022/05/04 07:11:14;;;;;;;12.00;8.10;;;17.60;96.70;;;;;;4892235;29;20047;-85
2022/05/04 07:13:43;;;;;;;9.73;7.93;;;17.70;96.70;;;;;;4898713;29;20056;-85
2022/05/04 07:16:12;;;;;;;8.35;7.32;;;17.70;96.70;;;;;;4902837;29;20051;-85
2022/05/04 07:18:40;;;;;;;8.77;7.97;;;17.80;96.70;;;;;;4911061;29;20044;-85
2022/05/04 07:21:08;;;;;;;10.02;8.98;;;17.90;96.70;;;;;;4925327;29;20350;-85
2022/05/04 07:23:36;;;;;;;10.18;9.18;;;17.80;96.70;;;;;;4920218;29;20051;-85
2022/05/04 07:26:04;;;;;;;10.43;8.98;;;17.70;96.70;;;;;;4894768;29;20394;-82
2022/05/04 07:28:32;;;;;;;10.13;9.18;;;17.70;96.70;;;;;;4898625;29;20051;-83
2022/05/04 07:31:00;;;;;;;11.82;10.63;;;17.70;96.70;;;;;;4926953;29;20090;-83
2022/05/04 07:33:29;;;;;;;11.52;10.43;;;17.80;96.70;;;;;;4897269;29;20299;-83
2022/05/04 07:35:58;;;;;;;11.50;10.30;;;17.70;96.70;;;;;;4895220;29;20048;-83
2022/05/04 07:38:26;;;;;;;11.95;10.85;;;17.70;96.70;;;;;;4900554;29;20082;-83
2022/05/04 07:44:00;;;;;;;10.20;9.30;;;17.80;96.70;;;;;;4850130;29;20045;-85
2022/05/04 07:46:28;;;;;;;10.57;9.32;;;17.80;96.70;;;;;;4862362;29;20041;-85
2022/05/04 07:48:57;;;;;;;11.23;9.35;;;17.80;96.70;;;;;;4881949;29;20081;-85
2022/05/04 07:51:25;;;;;;;11.35;10.15;;;17.80;96.70;;;;;;4910147;29;20079;-85
2022/05/04 07:53:53;;;;;;;11.68;10.48;;;17.90;96.70;;;;;;4927260;29;20051;-85
2022/05/04 07:56:21;;;;;;;11.85;9.88;;;18.00;96.70;;;;;;4905390;29;20075;-85
2022/05/04 07:58:49;;;;;;;10.98;9.90;;;18.10;96.70;;;;;;4897653;29;20422;-85
2022/05/04 08:04:20;;;;;;;11.02;9.95;;;18.00;96.70;;;;;;4865830;29;20048;-85
2022/05/04 08:06:48;;;;;;;12.38;9.82;;;18.10;96.70;;;;;;4903628;29;20186;-86
2022/05/04 08:09:17;;;;;;;13.07;10.52;;;18.00;96.70;;;;;;4892588;29;20052;-85
2022/05/04 08:11:45;;;;;;;11.68;10.57;;;18.00;96.70;;;;;;4919950;29;20044;-85
2022/05/04 08:14:13;;;;;;;12.48;11.25;;;18.00;96.70;;;;;;4903555;29;20054;-85
2022/05/04 08:16:41;;;;;;;13.30;10.65;;;18.20;96.70;;;;;;4921062;29;20056;-85
2022/05/04 08:19:15;;;;;;;12.48;11.18;;;18.30;96.70;;;;;;4918671;29;20075;-83
2022/05/04 08:21:43;;;;;;;12.18;10.68;;;18.20;96.70;;;;;;4903273;29;20047;-83
2022/05/04 08:24:11;;;;;;;11.68;10.43;;;18.20;96.70;;;;;;4911670;29;20048;-82
2022/05/04 08:26:42;;;;;;;12.32;11.02;;;18.10;96.70;;;;;;4906270;29;20039;-82
2022/05/04 08:29:11;;;;;;;12.80;10.75;;;18.10;96.70;;;;;;4891147;29;20043;-83
2022/05/04 08:31:39;;;;;;;13.35;10.93;;;18.20;96.70;;;;;;4895531;29;20048;-83
2022/05/04 08:34:07;;;;;;;15.27;10.45;;;18.20;96.70;;;;;;4910658;29;20051;-83
2022/05/04 08:36:37;;;;;;;11.60;10.40;;;18.20;96.70;;;;;;4908535;29;20239;-82
2022/05/04 08:39:07;;;;;;;11.77;10.57;;;18.20;96.70;;;;;;4891179;29;20167;-80
2022/05/04 08:41:39;;;;;;;12.48;11.18;;;18.20;96.70;;;;;;4912100;29;20056;-81
2022/05/04 08:44:08;;;;;;;12.02;10.82;;;18.20;96.70;;;;;;4907059;29;20139;-81
2022/05/04 08:46:38;;;;;;;13.48;11.15;;;18.30;96.70;;;;;;4918135;29;20055;-81
2022/05/04 08:49:06;;;;;;;12.52;9.95;;;18.30;96.70;;;;;;4900959;29;20084;-81
2022/05/04 08:51:37;;;;;;;13.13;11.32;;;18.50;96.70;;;;;;4914697;29;20136;-81
2022/05/04 08:54:06;;;;;;;11.32;10.13;;;18.60;96.70;;;;;;4930632;29;20043;-80
2022/05/04 08:56:35;;;;;;;10.20;9.30;;;18.60;96.70;;;;;;4905511;29;20155;-80
2022/05/04 08:59:04;;;;;;;13.60;10.02;;;18.70;96.70;;;;;;4903040;29;20047;-81
2022/05/04 09:01:32;;;;;;;10.82;9.73;;;18.80;96.70;;;;;;4907851;29;20497;-81
2022/05/04 09:04:00;;;;;;;11.82;10.18;;;18.90;96.70;;;;;;4903388;29;20041;-82
2022/05/04 09:06:29;;;;;;;11.35;9.68;;;18.90;96.70;;;;;;4916317;29;20040;-82
2022/05/04 09:09:08;;;;;;;12.13;10.02;;;19.00;96.70;;;;;;4914675;29;20048;-82
2022/05/04 09:11:37;;;;;;;10.85;9.35;;;19.00;96.70;;;;;;4897313;29;20249;-82
2022/05/04 09:14:08;;;;;;;14.10;9.82;;;19.00;96.70;;;;;;4901135;29;20050;-82
2022/05/04 09:16:36;;;;;;;10.77;9.05;;;19.10;96.70;;;;;;4904521;29;20551;-85
2022/05/04 09:19:06;;;;;;;12.70;10.35;;;19.30;96.70;;;;;;4897819;29;20048;-85
2022/05/04 09:21:35;;;;;;;10.20;9.02;;;19.40;96.70;;;;;;4905170;29;20053;-84
2022/05/04 09:24:05;;;;;;;10.63;9.50;;;19.50;96.70;;;;;;4901898;29;20052;-85
2022/05/04 09:26:39;;;;;;;10.15;9.20;;;19.60;96.70;;;;;;4897414;29;20513;-85
2022/05/04 09:29:10;;;;;;;9.98;8.68;;;19.60;96.70;;;;;;4899565;29;20083;-86
2022/05/04 09:31:41;;;;;;;10.95;9.32;;;19.70;96.70;;;;;;4911609;29;20124;-87
2022/05/04 09:34:10;;;;;;;9.70;8.80;;;19.70;96.70;;;;;;4897461;29;20046;-87
2022/05/04 09:44:53;;;;;;;10.95;9.38;;;19.80;96.70;;;;;;4898175;29;20073;-87
2022/05/04 09:45:21;;;;;;;11.05;9.65;;;20.00;96.70;;;;;;5085136;28;20397;-83
2022/05/04 09:47:49;;;;;;;11.25;9.68;;;20.00;96.70;;;;;;5066486;28;20436;-84
2022/05/04 09:50:17;;;;;;;10.43;9.30;;;20.10;96.70;;;;;;5067201;28;20919;-84
2022/05/04 09:52:48;;;;;;;12.60;10.13;;;20.20;96.70;;;;;;5077358;28;20036;-84
2022/05/04 09:55:18;;;;;;;10.90;9.70;;;20.20;96.70;;;;;;5076570;28;20049;-84
2022/05/04 09:57:47;;;;;;;12.10;8.93;;;20.30;96.70;;;;;;5077305;28;20413;-84
2022/05/04 10:00:19;;;;;;;7.65;6.70;;;20.40;96.70;;;;;;5080835;28;20094;-84
2022/05/04 10:02:48;;;;;;;5.25;4.50;;;20.50;96.70;;;;;;5065752;28;20044;-83
2022/05/04 10:05:19;;;;;;;6.07;5.45;;;20.60;96.70;;;;;;5071958;28;20048;-85
2022/05/04 10:07:49;;;;;;;5.85;5.22;;;20.70;96.70;;;;;;5059552;28;20040;-85
2022/05/04 10:10:20;;;;;;;5.53;4.68;;;20.70;96.70;;;;;;5063306;28;20102;-85
2022/05/04 10:12:48;;;;;;;6.57;5.00;;;20.90;96.70;;;;;;5056739;28;20480;-82
2022/05/04 10:15:17;;;;;;;5.55;4.88;;;21.00;96.70;;;;;;5074727;28;20535;-82
2022/05/04 10:17:53;;;;;;;4.20;3.83;;;21.20;96.70;;;;;;5083522;28;20040;-82
2022/05/04 10:20:23;;;;;;;4.03;3.63;;;21.20;96.70;;;;;;5085014;28;20123;-82
2022/05/04 10:22:57;;;;;;;5.28;3.63;;;21.30;96.70;;;;;;5071916;28;20098;-83
2022/05/04 10:25:26;;;;;;;3.28;2.90;;;21.40;96.70;;;;;;5084461;28;20047;-81
2022/05/04 10:28:05;;;;;;;4.38;3.38;;;21.40;96.70;;;;;;5070172;28;20082;-82
2022/05/04 10:30:34;;;;;;;5.45;4.38;;;21.60;96.70;;;;;;5082355;28;20506;-82
2022/05/04 10:33:05;;;;;;;3.70;3.30;;;21.70;96.70;;;;;;5055804;28;20452;-81
2022/05/04 10:35:36;;;;;;;3.80;3.40;;;21.70;96.70;;;;;;5064458;28;20496;-82
2022/05/04 10:38:15;;;;;;;2.80;2.60;;;21.80;96.70;;;;;;5073719;28;20063;-82
2022/05/04 10:40:45;;;;;;;3.30;3.00;;;22.00;96.70;;;;;;5077038;28;20502;-82
2022/05/04 10:43:16;;;;;;;3.35;2.72;;;22.10;96.70;;;;;;5083482;28;20138;-81
2022/05/04 10:45:45;;;;;;;3.63;3.28;;;22.20;96.70;;;;;;5078777;28;20098;-80
2022/05/04 10:48:24;;;;;;;3.38;2.85;;;22.30;96.70;;;;;;5077402;28;20072;-80
2022/05/04 10:50:54;;;;;;;3.45;2.88;;;22.30;96.70;;;;;;5072905;28;20563;-80
2022/05/04 10:53:35;;;;;;;3.75;2.20;;;22.30;96.70;;;;;;5062624;28;20044;-80
2022/05/04 10:56:05;;;;;;;3.25;2.35;;;22.40;96.70;;;;;;5064933;28;20048;-80
2022/05/04 10:58:35;;;;;;;3.35;3.05;;;22.50;96.70;;;;;;5048223;28;20135;-80
2022/05/04 11:01:05;;;;;;;5.03;3.00;;;22.70;96.70;;;;;;5055166;28;20045;-80
2022/05/04 11:03:36;;;;;;;3.20;2.78;;;22.70;96.70;;;;;;5046491;28;20053;-80
2022/05/04 11:06:09;;;;;;;3.08;2.42;;;22.70;96.70;;;;;;5070349;28;20576;-81
2022/05/04 11:08:48;;;;;;;8.52;2.60;;;22.80;96.70;;;;;;5066136;28;20118;-81
2022/05/04 11:11:18;;;;;;;3.78;2.78;;;22.90;96.70;;;;;;5068025;28;20060;-81
2022/05/04 11:13:47;;;;;;;2.40;2.05;;;22.90;96.70;;;;;;5042732;28;20643;-80
2022/05/04 11:16:15;;;;;;;3.53;2.30;;;22.80;96.70;;;;;;5053868;28;20037;-83
2022/05/04 11:18:44;;;;;;;3.83;2.22;;;22.90;96.70;;;;;;5060189;28;20052;-83
2022/05/04 11:21:13;;;;;;;4.38;2.53;;;23.00;96.70;;;;;;5053159;28;20060;-83
2022/05/04 11:23:45;;;;;;;2.35;1.95;;;23.20;96.70;;;;;;5043163;28;20165;-82
2022/05/04 11:26:21;;;;;;;4.38;2.40;;;23.10;96.70;;;;;;5061707;28;20041;-83
2022/05/04 11:28:50;;;;;;;3.00;2.70;;;23.30;96.70;;;;;;5063762;28;20040;-82
2022/05/04 11:31:19;;;;;;;4.63;3.28;;;23.40;96.70;;;;;;5059670;28;20512;-82
2022/05/04 11:33:50;;;;;;;5.53;3.42;;;23.50;96.70;;;;;;5062944;28;20045;-82
2022/05/04 11:36:19;;;;;;;4.53;3.97;;;23.50;96.70;;;;;;5048823;28;20044;-82
2022/05/04 11:38:48;;;;;;;7.43;3.80;;;23.60;96.70;;;;;;5057957;28;20122;-82
2022/05/04 11:41:17;;;;;;;4.10;3.70;;;23.40;96.70;;;;;;5061566;28;20058;-82
2022/05/04 11:43:47;;;;;;;4.10;3.70;;;23.50;96.70;;;;;;5045086;28;20579;-83
2022/05/04 11:46:15;;;;;;;4.32;3.85;;;23.70;96.70;;;;;;5060494;28;20044;-83
2022/05/04 11:48:44;;;;;;;5.35;4.20;;;23.80;96.70;;;;;;5065001;28;20044;-83
2022/05/04 11:51:16;;;;;;;5.00;4.50;;;23.60;96.70;;;;;;5056033;28;20245;-83
2022/05/04 11:53:45;;;;;;;6.25;4.90;;;23.70;96.70;;;;;;5043500;28;20576;-82
2022/05/04 11:56:13;;;;;;;6.85;4.18;;;23.70;96.70;;;;;;5067755;28;20131;-83
2022/05/04 11:58:42;;;;;;;5.43;4.10;;;23.70;96.70;;;;;;5061783;28;20068;-83
2022/05/04 12:01:13;;;;;;;5.60;4.40;;;23.90;96.70;;;;;;5066641;28;20045;-80
2022/05/04 12:03:41;;;;;;;4.53;4.13;;;23.80;96.70;;;;;;5061734;28;20066;-80
2022/05/04 12:06:12;;;;;;;5.50;4.30;;;23.70;96.70;;;;;;5066611;28;20044;-80
2022/05/04 12:08:42;;;;;;;4.68;3.88;;;23.70;96.70;;;;;;5065144;28;20486;-80
2022/05/04 12:11:10;;;;;;;5.72;3.90;;;23.70;96.70;;;;;;5064126;28;20044;-81
2022/05/04 12:13:40;;;;;;;5.30;4.80;;;23.90;96.70;;;;;;5058226;28;20470;-81
2022/05/04 12:16:10;;;;;;;4.00;3.70;;;24.00;96.70;;;;;;5049958;28;20049;-81
2022/05/04 12:18:39;;;;;;;4.50;3.85;;;23.90;96.70;;;;;;5058620;28;20060;-80
2022/05/04 12:21:08;;;;;;;5.50;3.60;;;24.00;96.70;;;;;;5042300;28;20514;-80
2022/05/04 12:23:39;;;;;;;7.82;3.92;;;24.20;96.70;;;;;;5063789;28;20074;-81
2022/05/04 12:26:10;;;;;;;4.35;3.50;;;24.20;96.70;;;;;;5045052;28;20051;-81
2022/05/04 12:28:39;;;;;;;4.65;3.00;;;24.10;96.70;;;;;;5042506;28;20060;-80
2022/05/04 12:33:56;;;;;;;3.15;2.80;;;24.10;96.70;;;;;;5057520;28;20098;-81
2022/05/04 12:36:24;;;;;;;4.47;2.65;;;24.10;96.70;;;;;;5054834;28;20339;-80
2022/05/04 12:38:53;;;;;;;2.55;2.35;;;24.20;96.70;;;;;;5049911;28;20048;-80
2022/05/04 12:41:25;;;;;;;3.15;2.42;;;24.10;96.70;;;;;;5043173;28;20041;-81
2022/05/04 12:43:53;;;;;;;3.80;2.85;;;24.20;96.70;;;;;;5060977;28;20112;-80
2022/05/04 12:46:21;;;;;;;4.85;2.40;;;24.10;96.70;;;;;;5061468;28;20534;-81
2022/05/04 12:48:50;;;;;;;5.10;2.88;;;24.10;96.70;;;;;;5051217;28;20224;-81
2022/05/04 12:51:18;;;;;;;2.50;2.30;;;24.20;96.70;;;;;;5040104;28;20159;-80
2022/05/04 12:53:48;;;;;;;3.03;2.40;;;24.30;96.70;;;;;;5063080;28;20052;-81
2022/05/04 12:59:05;;;;;;;2.88;2.17;;;24.30;96.60;;;;;;5066816;28;20044;-81
2022/05/04 13:01:35;;;;;;;2.75;2.10;;;24.20;96.70;;;;;;5061350;28;20048;-81
2022/05/04 13:04:04;;;;;;;3.40;1.92;;;24.20;96.30;;;;;;5060267;28;20127;-81
2022/05/04 13:06:32;;;;;;;3.83;2.00;;;24.20;96.70;;;;;;5049311;28;20055;-81
2022/05/04 13:09:00;;;;;;;13.35;2.83;;;24.30;95.40;;;;;;5065828;28;20060;-79
2022/05/04 13:11:30;;;;;;;4.15;1.88;;;24.40;95.90;;;;;;5064342;28;20051;-82
2022/05/04 13:13:58;;;;;;;14.60;3.40;;;24.40;93.70;;;;;;5057647;28;20082;-82
2022/05/04 13:16:32;;;;;;;3.65;1.88;;;24.40;93.20;;;;;;5052119;28;20506;-82
2022/05/04 13:19:01;;;;;;;4.40;2.20;;;24.50;93.40;;;;;;5062063;28;20478;-82
2022/05/04 13:21:30;;;;;;;4.22;2.05;;;24.90;92.40;;;;;;5040185;28;20564;-81
2022/05/04 13:24:02;;;;;;;2.28;2.08;;;24.90;94.00;;;;;;5059269;28;20040;-83
2022/05/04 13:26:30;;;;;;;3.28;2.60;;;24.90;92.90;;;;;;5064284;28;20044;-82
2022/05/04 13:28:58;;;;;;;3.88;1.80;;;24.90;91.30;;;;;;5063763;28;20118;-83